METAR Data
IDs: Format: Raw Decoded Include TAF

Data at: 0858 UTC 13 Aug 2022

METAR for:VTUQ (Nakhon Ratchasima Ar, 30, TH)
Text:VTUQ 130800Z VRB02KT 9999 FEW030 SCT080 33/23 Q1007 NOSIG
Temperature: 33.0°C ( 91°F)
Dewpoint: 23.0°C ( 73°F) [RH = 56%]
Pressure (altimeter):29.73 inches Hg (1007.0 mb)
Winds:variable direction winds at 2 MPH (2 knots; 1.0 m/s)
Visibility:6 or more sm (10+ km)
Ceiling:at least 12,000 feet AGL
Clouds: few clouds at 3000 feet AGL, scattered clouds at 8000 feet AGL